sensor_id;sensor_type;location;lat;lon;timestamp;P1;durP1;ratioP1;P2;durP2;ratioP2
62457;SDS011;48509;52.122;5.250;2022-08-19T00:01:21;5.8;;;4.8;;
62457;SDS011;48509;52.122;5.250;2022-08-19T00:02:58;7.1;;;4.8;;
62457;SDS011;48509;52.122;5.250;2022-08-19T00:06:12;6.6;;;5.2;;
62457;SDS011;48509;52.122;5.250;2022-08-19T00:07:49;8.9;;;5.6;;
62457;SDS011;48509;52.122;5.250;2022-08-19T00:09:26;7.0;;;5.4;;
62457;SDS011;48509;52.122;5.250;2022-08-19T00:12:40;7.7;;;6.9;;
62457;SDS011;48509;52.122;5.250;2022-08-19T00:14:18;7.4;;;6.7;;
62457;SDS011;48509;52.122;5.250;2022-08-19T00:15:55;7.0;;;6.3;;
62457;SDS011;48509;52.122;5.250;2022-08-19T00:17:31;7.7;;;6.3;;
62457;SDS011;48509;52.122;5.250;2022-08-19T00:20:45;5.6;;;5.11;;
62457;SDS011;48509;52.122;5.250;2022-08-19T00:22:20;5.4;;;4.91;;
62457;SDS011;48509;52.122;5.250;2022-08-19T00:23:58;7.1;;;5.3;;
62457;SDS011;48509;52.122;5.250;2022-08-19T00:27:12;6.6;;;6.0;;
62457;SDS011;48509;52.122;5.250;2022-08-19T00:28:49;7.4;;;6.0;;
62457;SDS011;48509;52.122;5.250;2022-08-19T00:30:27;6.1;;;5.5;;
62457;SDS011;48509;52.122;5.250;2022-08-19T00:32:04;8.0;;;7.2;;
62457;SDS011;48509;52.122;5.250;2022-08-19T00:35:18;6.2;;;5.3;;
62457;SDS011;48509;52.122;5.250;2022-08-19T00:36:54;6.4;;;5.9;;
62457;SDS011;48509;52.122;5.250;2022-08-19T00:38:31;7.1;;;6.3;;
62457;SDS011;48509;52.122;5.250;2022-08-19T00:41:49;7.2;;;6.4;;
62457;SDS011;48509;52.122;5.250;2022-08-19T00:43:27;7.8;;;7.1;;
62457;SDS011;48509;52.122;5.250;2022-08-19T00:45:05;7.3;;;6.5;;
62457;SDS011;48509;52.122;5.250;2022-08-19T00:46:47;7.1;;;6.5;;
62457;SDS011;48509;52.122;5.250;2022-08-19T00:50:02;9.5;;;7.7;;
62457;SDS011;48509;52.122;5.250;2022-08-19T00:51:41;8.0;;;7.2;;
62457;SDS011;48509;52.122;5.250;2022-08-19T00:53:21;6.9;;;6.3;;
62457;SDS011;48509;52.122;5.250;2022-08-19T00:56:44;7.2;;;6.5;;
62457;SDS011;48509;52.122;5.250;2022-08-19T00:58:23;6.9;;;5.7;;
62457;SDS011;48509;52.122;5.250;2022-08-19T01:00:06;6.9;;;6.2;;
62457;SDS011;48509;52.122;5.250;2022-08-19T01:01:45;6.5;;;5.9;;
62457;SDS011;48509;52.122;5.250;2022-08-19T01:05:00;7.2;;;6.5;;
62457;SDS011;48509;52.122;5.250;2022-08-19T01:06:41;8.6;;;6.5;;
62457;SDS011;48509;52.122;5.250;2022-08-19T01:08:17;6.3;;;5.7;;
62457;SDS011;48509;52.122;5.250;2022-08-19T01:09:55;7.8;;;5.3;;
62457;SDS011;48509;52.122;5.250;2022-08-19T01:13:19;6.8;;;6.1;;
62457;SDS011;48509;52.122;5.250;2022-08-19T01:14:58;8.9;;;8.0;;
62457;SDS011;48509;52.122;5.250;2022-08-19T01:16:35;7.4;;;6.3;;
62457;SDS011;48509;52.122;5.250;2022-08-19T01:18:15;6.8;;;5.9;;
62457;SDS011;48509;52.122;5.250;2022-08-19T01:21:32;5.6;;;5.0;;
62457;SDS011;48509;52.122;5.250;2022-08-19T01:23:20;5.8;;;5.2;;
62457;SDS011;48509;52.122;5.250;2022-08-19T01:24:56;7.1;;;5.6;;
62457;SDS011;48509;52.122;5.250;2022-08-19T01:26:34;6.5;;;5.8;;
62457;SDS011;48509;52.122;5.250;2022-08-19T01:29:54;5.4;;;4.91;;
62457;SDS011;48509;52.122;5.250;2022-08-19T01:31:31;5.5;;;5.0;;
62457;SDS011;48509;52.122;5.250;2022-08-19T01:33:07;7.1;;;6.4;;
62457;SDS011;48509;52.122;5.250;2022-08-19T01:36:23;9.4;;;7.0;;
62457;SDS011;48509;52.122;5.250;2022-08-19T01:38:06;6.7;;;6.1;;
62457;SDS011;48509;52.122;5.250;2022-08-19T01:39:46;7.5;;;5.6;;
62457;SDS011;48509;52.122;5.250;2022-08-19T01:41:23;10.3;;;6.1;;
62457;SDS011;48509;52.122;5.250;2022-08-19T01:44:37;6.9;;;6.2;;
62457;SDS011;48509;52.122;5.250;2022-08-19T01:46:15;7.6;;;6.9;;
62457;SDS011;48509;52.122;5.250;2022-08-19T01:47:51;7.3;;;6.5;;
62457;SDS011;48509;52.122;5.250;2022-08-19T01:49:29;6.5;;;5.9;;
62457;SDS011;48509;52.122;5.250;2022-08-19T01:52:45;5.4;;;4.91;;
62457;SDS011;48509;52.122;5.250;2022-08-19T01:54:23;6.1;;;5.5;;
62457;SDS011;48509;52.122;5.250;2022-08-19T01:56:00;6.6;;;5.9;;
62457;SDS011;48509;52.122;5.250;2022-08-19T01:59:20;5.8;;;5.2;;
62457;SDS011;48509;52.122;5.250;2022-08-19T02:00:59;6.8;;;5.6;;
62457;SDS011;48509;52.122;5.250;2022-08-19T02:02:36;7.8;;;6.6;;
62457;SDS011;48509;52.122;5.250;2022-08-19T02:04:12;8.81;;;7.2;;
62457;SDS011;48509;52.122;5.250;2022-08-19T02:07:32;6.3;;;5.7;;
62457;SDS011;48509;52.122;5.250;2022-08-19T02:09:08;5.0;;;4.5;;
62457;SDS011;48509;52.122;5.250;2022-08-19T02:10:46;7.1;;;6.1;;
62457;SDS011;48509;52.122;5.250;2022-08-19T02:13:58;7.1;;;6.5;;
62457;SDS011;48509;52.122;5.250;2022-08-19T02:15:36;7.4;;;6.2;;
62457;SDS011;48509;52.122;5.250;2022-08-19T02:17:13;7.0;;;6.3;;
62457;SDS011;48509;52.122;5.250;2022-08-19T02:18:49;5.8;;;5.3;;
62457;SDS011;48509;52.122;5.250;2022-08-19T02:22:03;6.1;;;5.5;;
62457;SDS011;48509;52.122;5.250;2022-08-19T02:23:40;7.6;;;6.2;;
62457;SDS011;48509;52.122;5.250;2022-08-19T02:25:16;7.8;;;6.2;;
62457;SDS011;48509;52.122;5.250;2022-08-19T02:28:29;6.6;;;6.0;;
62457;SDS011;48509;52.122;5.250;2022-08-19T02:30:07;8.81;;;6.7;;
62457;SDS011;48509;52.122;5.250;2022-08-19T02:31:46;7.2;;;6.5;;
62457;SDS011;48509;52.122;5.250;2022-08-19T02:33:23;6.3;;;5.7;;
62457;SDS011;48509;52.122;5.250;2022-08-19T02:36:36;6.9;;;6.1;;
62457;SDS011;48509;52.122;5.250;2022-08-19T02:38:29;7.6;;;6.9;;
62457;SDS011;48509;52.122;5.250;2022-08-19T02:40:06;8.31;;;6.7;;
62457;SDS011;48509;52.122;5.250;2022-08-19T02:43:20;7.7;;;6.9;;
62457;SDS011;48509;52.122;5.250;2022-08-19T02:44:58;8.2;;;7.4;;
62457;SDS011;48509;52.122;5.250;2022-08-19T02:46:34;9.21;;;7.6;;
62457;SDS011;48509;52.122;5.250;2022-08-19T02:48:11;8.2;;;7.4;;
62457;SDS011;48509;52.122;5.250;2022-08-19T02:51:26;10.0;;;7.9;;
62457;SDS011;48509;52.122;5.250;2022-08-19T02:53:08;9.1;;;7.8;;
62457;SDS011;48509;52.122;5.250;2022-08-19T02:54:46;8.1;;;7.3;;
62457;SDS011;48509;52.122;5.250;2022-08-19T02:57:59;9.71;;;7.6;;
62457;SDS011;48509;52.122;5.250;2022-08-19T02:59:36;8.9;;;7.7;;
62457;SDS011;48509;52.122;5.250;2022-08-19T03:01:19;11.1;;;9.81;;
62457;SDS011;48509;52.122;5.250;2022-08-19T03:02:57;9.4;;;6.9;;
62457;SDS011;48509;52.122;5.250;2022-08-19T03:06:10;9.5;;;8.6;;
62457;SDS011;48509;52.122;5.250;2022-08-19T03:07:49;12.0;;;10.5;;
62457;SDS011;48509;52.122;5.250;2022-08-19T03:09:25;11.4;;;9.31;;
62457;SDS011;48509;52.122;5.250;2022-08-19T03:11:03;10.0;;;9.0;;
62457;SDS011;48509;52.122;5.250;2022-08-19T03:14:18;9.21;;;8.0;;
62457;SDS011;48509;52.122;5.250;2022-08-19T03:15:54;9.5;;;8.4;;
62457;SDS011;48509;52.122;5.250;2022-08-19T03:17:30;11.6;;;9.31;;
62457;SDS011;48509;52.122;5.250;2022-08-19T03:20:43;11.8;;;9.6;;
62457;SDS011;48509;52.122;5.250;2022-08-19T03:22:21;8.81;;;8.0;;
62457;SDS011;48509;52.122;5.250;2022-08-19T03:24:00;11.4;;;9.0;;
62457;SDS011;48509;52.122;5.250;2022-08-19T03:25:44;9.81;;;8.2;;
62457;SDS011;48509;52.122;5.250;2022-08-19T03:29:02;9.4;;;8.4;;
62457;SDS011;48509;52.122;5.250;2022-08-19T03:30:40;12.1;;;9.6;;
62457;SDS011;48509;52.122;5.250;2022-08-19T03:35:31;13.4;;;10.6;;
62457;SDS011;48509;52.122;5.250;2022-08-19T03:37:08;13.1;;;11.5;;
62457;SDS011;48509;52.122;5.250;2022-08-19T03:38:49;11.9;;;10.7;;
62457;SDS011;48509;52.122;5.250;2022-08-19T03:40:30;12.2;;;11.0;;
62457;SDS011;48509;52.122;5.250;2022-08-19T03:43:46;15.6;;;12.3;;
62457;SDS011;48509;52.122;5.250;2022-08-19T03:45:23;12.3;;;11.0;;
62457;SDS011;48509;52.122;5.250;2022-08-19T03:47:00;11.6;;;10.5;;
62457;SDS011;48509;52.122;5.250;2022-08-19T03:50:14;11.4;;;10.0;;
62457;SDS011;48509;52.122;5.250;2022-08-19T03:51:52;10.5;;;9.4;;
62457;SDS011;48509;52.122;5.250;2022-08-19T03:53:30;12.8;;;10.1;;
62457;SDS011;48509;52.122;5.250;2022-08-19T03:55:08;9.5;;;8.5;;
62457;SDS011;48509;52.122;5.250;2022-08-19T03:58:24;11.1;;;9.9;;
62457;SDS011;48509;52.122;5.250;2022-08-19T04:00:04;11.2;;;9.21;;
62457;SDS011;48509;52.122;5.250;2022-08-19T04:01:42;12.8;;;11.0;;
62457;SDS011;48509;52.122;5.250;2022-08-19T04:04:55;14.2;;;10.8;;
62457;SDS011;48509;52.122;5.250;2022-08-19T04:06:31;11.2;;;9.0;;
62457;SDS011;48509;52.122;5.250;2022-08-19T04:08:11;10.6;;;9.6;;
62457;SDS011;48509;52.122;5.250;2022-08-19T04:09:47;9.81;;;8.81;;
62457;SDS011;48509;52.122;5.250;2022-08-19T04:13:04;10.8;;;9.6;;
62457;SDS011;48509;52.122;5.250;2022-08-19T04:14:41;10.1;;;9.0;;
62457;SDS011;48509;52.122;5.250;2022-08-19T04:16:17;9.21;;;8.2;;
62457;SDS011;48509;52.122;5.250;2022-08-19T04:19:32;10.8;;;9.0;;
62457;SDS011;48509;52.122;5.250;2022-08-19T04:21:15;10.4;;;9.4;;
62457;SDS011;48509;52.122;5.250;2022-08-19T04:22:52;9.1;;;8.1;;
62457;SDS011;48509;52.122;5.250;2022-08-19T04:24:29;9.9;;;8.71;;
62457;SDS011;48509;52.122;5.250;2022-08-19T04:27:46;9.1;;;7.7;;
62457;SDS011;48509;52.122;5.250;2022-08-19T04:29:24;11.2;;;10.0;;
62457;SDS011;48509;52.122;5.250;2022-08-19T04:31:01;10.5;;;8.6;;
62457;SDS011;48509;52.122;5.250;2022-08-19T04:34:17;12.6;;;10.9;;
62457;SDS011;48509;52.122;5.250;2022-08-19T04:35:58;11.7;;;9.81;;
62457;SDS011;48509;52.122;5.250;2022-08-19T04:37:34;11.9;;;10.7;;
62457;SDS011;48509;52.122;5.250;2022-08-19T04:39:13;13.5;;;11.8;;
62457;SDS011;48509;52.122;5.250;2022-08-19T04:43:47;13.3;;;10.21;;
62457;SDS011;48509;52.122;5.250;2022-08-19T04:45:23;15.1;;;12.0;;
62457;SDS011;48509;52.122;5.250;2022-08-19T04:48:37;16.4;;;12.8;;
62457;SDS011;48509;52.122;5.250;2022-08-19T04:50:15;15.7;;;12.0;;
62457;SDS011;48509;52.122;5.250;2022-08-19T04:51:54;16.61;;;13.0;;
62457;SDS011;48509;52.122;5.250;2022-08-19T04:55:10;14.2;;;10.8;;
62457;SDS011;48509;52.122;5.250;2022-08-19T04:56:49;12.3;;;10.8;;
62457;SDS011;48509;52.122;5.250;2022-08-19T04:58:27;12.8;;;10.4;;
62457;SDS011;48509;52.122;5.250;2022-08-19T05:00:04;13.7;;;11.2;;
62457;SDS011;48509;52.122;5.250;2022-08-19T05:03:18;15.6;;;12.9;;
62457;SDS011;48509;52.122;5.250;2022-08-19T05:04:56;15.1;;;12.6;;
62457;SDS011;48509;52.122;5.250;2022-08-19T05:06:34;10.9;;;9.81;;
62457;SDS011;48509;52.122;5.250;2022-08-19T05:08:12;16.61;;;13.7;;
62457;SDS011;48509;52.122;5.250;2022-08-19T05:11:27;15.9;;;11.8;;
62457;SDS011;48509;52.122;5.250;2022-08-19T05:13:09;16.4;;;12.4;;
62457;SDS011;48509;52.122;5.250;2022-08-19T05:14:47;14.9;;;12.1;;
62457;SDS011;48509;52.122;5.250;2022-08-19T05:24:29;17.0;;;14.7;;
62457;SDS011;48509;52.122;5.250;2022-08-19T05:26:06;20.9;;;15.6;;
62457;SDS011;48509;52.122;5.250;2022-08-19T05:27:42;17.61;;;15.1;;
62457;SDS011;48509;52.122;5.250;2022-08-19T05:29:19;14.6;;;13.0;;
62457;SDS011;48509;52.122;5.250;2022-08-19T05:32:33;17.11;;;14.6;;
62457;SDS011;48509;52.122;5.250;2022-08-19T05:34:11;16.61;;;14.9;;
62457;SDS011;48509;52.122;5.250;2022-08-19T05:35:49;25.9;;;19.7;;
62457;SDS011;48509;52.122;5.250;2022-08-19T05:39:04;27.4;;;20.7;;
62457;SDS011;48509;52.122;5.250;2022-08-19T05:40:41;19.5;;;15.7;;
62457;SDS011;48509;52.122;5.250;2022-08-19T05:42:20;17.7;;;15.8;;
62457;SDS011;48509;52.122;5.250;2022-08-19T05:43:57;21.0;;;16.7;;
62457;SDS011;48509;52.122;5.250;2022-08-19T05:47:15;20.3;;;16.7;;
62457;SDS011;48509;52.122;5.250;2022-08-19T05:48:53;21.4;;;15.4;;
62457;SDS011;48509;52.122;5.250;2022-08-19T05:50:30;18.7;;;15.4;;
62457;SDS011;48509;52.122;5.250;2022-08-19T05:53:46;20.5;;;17.7;;
62457;SDS011;48509;52.122;5.250;2022-08-19T05:55:23;20.6;;;16.9;;
62457;SDS011;48509;52.122;5.250;2022-08-19T05:57:00;19.91;;;16.5;;
62457;SDS011;48509;52.122;5.250;2022-08-19T05:58:37;27.6;;;19.0;;
62457;SDS011;48509;52.122;5.250;2022-08-19T06:01:54;20.8;;;17.7;;
62457;SDS011;48509;52.122;5.250;2022-08-19T06:03:31;21.2;;;17.0;;
62457;SDS011;48509;52.122;5.250;2022-08-19T06:05:09;21.6;;;17.0;;
62457;SDS011;48509;52.122;5.250;2022-08-19T06:06:47;20.6;;;17.2;;
62457;SDS011;48509;52.122;5.250;2022-08-19T06:10:02;23.8;;;18.3;;
62457;SDS011;48509;52.122;5.250;2022-08-19T06:11:41;20.8;;;18.2;;
62457;SDS011;48509;52.122;5.250;2022-08-19T06:13:20;36.0;;;24.9;;
62457;SDS011;48509;52.122;5.250;2022-08-19T06:16:36;52.6;;;34.81;;
62457;SDS011;48509;52.122;5.250;2022-08-19T06:18:13;46.0;;;32.21;;
62457;SDS011;48509;52.122;5.250;2022-08-19T06:19:51;50.5;;;35.71;;
62457;SDS011;48509;52.122;5.250;2022-08-19T06:21:29;60.9;;;41.8;;
62457;SDS011;48509;52.122;5.250;2022-08-19T06:24:43;68.2;;;44.5;;
62457;SDS011;48509;52.122;5.250;2022-08-19T06:26:19;68.0;;;46.5;;
62457;SDS011;48509;52.122;5.250;2022-08-19T06:27:57;71.61;;;46.3;;
62457;SDS011;48509;52.122;5.250;2022-08-19T06:31:14;72.11;;;46.0;;
62457;SDS011;48509;52.122;5.250;2022-08-19T06:32:52;69.2;;;45.2;;
62457;SDS011;48509;52.122;5.250;2022-08-19T06:34:30;74.8;;;49.1;;
62457;SDS011;48509;52.122;5.250;2022-08-19T06:36:15;65.2;;;46.9;;
62457;SDS011;48509;52.122;5.250;2022-08-19T06:39:31;61.9;;;43.4;;
62457;SDS011;48509;52.122;5.250;2022-08-19T06:41:14;70.41;;;45.7;;
62457;SDS011;48509;52.122;5.250;2022-08-19T06:42:50;70.11;;;48.5;;
62457;SDS011;48509;52.122;5.250;2022-08-19T06:44:29;76.2;;;50.4;;
62457;SDS011;48509;52.122;5.250;2022-08-19T06:47:48;73.7;;;48.4;;
62457;SDS011;48509;52.122;5.250;2022-08-19T06:49:27;77.41;;;49.9;;
62457;SDS011;48509;52.122;5.250;2022-08-19T06:51:08;85.2;;;53.0;;
62457;SDS011;48509;52.122;5.250;2022-08-19T06:54:20;83.9;;;52.2;;
62457;SDS011;48509;52.122;5.250;2022-08-19T06:56:00;95.6;;;57.7;;
62457;SDS011;48509;52.122;5.250;2022-08-19T06:57:36;94.0;;;55.9;;
62457;SDS011;48509;52.122;5.250;2022-08-19T06:59:13;89.3;;;55.0;;
62457;SDS011;48509;52.122;5.250;2022-08-19T07:02:39;109.2;;;62.2;;
62457;SDS011;48509;52.122;5.250;2022-08-19T07:04:17;102.8;;;62.2;;
62457;SDS011;48509;52.122;5.250;2022-08-19T07:05:55;101.3;;;58.0;;
62457;SDS011;48509;52.122;5.250;2022-08-19T07:07:34;97.8;;;59.1;;
62457;SDS011;48509;52.122;5.250;2022-08-19T07:10:53;103.7;;;58.9;;
62457;SDS011;48509;52.122;5.250;2022-08-19T07:12:29;117.3;;;65.6;;
62457;SDS011;48509;52.122;5.250;2022-08-19T07:14:07;91.8;;;52.1;;
62457;SDS011;48509;52.122;5.250;2022-08-19T07:17:22;94.1;;;55.6;;
62457;SDS011;48509;52.122;5.250;2022-08-19T07:18:59;89.1;;;52.1;;
62457;SDS011;48509;52.122;5.250;2022-08-19T07:20:37;84.6;;;51.8;;
62457;SDS011;48509;52.122;5.250;2022-08-19T07:22:14;81.0;;;49.4;;
62457;SDS011;48509;52.122;5.250;2022-08-19T07:25:28;87.8;;;53.8;;
62457;SDS011;48509;52.122;5.250;2022-08-19T07:27:05;78.91;;;48.7;;
62457;SDS011;48509;52.122;5.250;2022-08-19T07:28:44;85.1;;;51.2;;
62457;SDS011;48509;52.122;5.250;2022-08-19T07:31:59;78.11;;;49.9;;
62457;SDS011;48509;52.122;5.250;2022-08-19T07:33:37;66.2;;;45.4;;
62457;SDS011;48509;52.122;5.250;2022-08-19T07:35:14;79.5;;;51.6;;
62457;SDS011;48509;52.122;5.250;2022-08-19T07:36:50;67.7;;;46.2;;
62457;SDS011;48509;52.122;5.250;2022-08-19T07:40:05;72.41;;;48.2;;
62457;SDS011;48509;52.122;5.250;2022-08-19T07:41:43;84.6;;;48.4;;
62457;SDS011;48509;52.122;5.250;2022-08-19T07:43:24;73.3;;;45.6;;
62457;SDS011;48509;52.122;5.250;2022-08-19T07:46:45;75.2;;;44.5;;
62457;SDS011;48509;52.122;5.250;2022-08-19T07:48:28;70.5;;;47.1;;
62457;SDS011;48509;52.122;5.250;2022-08-19T07:50:07;73.91;;;49.3;;
62457;SDS011;48509;52.122;5.250;2022-08-19T07:51:46;80.0;;;48.1;;
62457;SDS011;48509;52.122;5.250;2022-08-19T07:55:04;72.91;;;46.5;;
62457;SDS011;48509;52.122;5.250;2022-08-19T07:56:42;72.2;;;44.7;;
62457;SDS011;48509;52.122;5.250;2022-08-19T07:58:19;79.7;;;50.0;;
62457;SDS011;48509;52.122;5.250;2022-08-19T07:59:58;76.11;;;47.8;;
62457;SDS011;48509;52.122;5.250;2022-08-19T08:03:12;72.8;;;48.5;;
62457;SDS011;48509;52.122;5.250;2022-08-19T08:09:29;66.41;;;44.3;;
62457;SDS011;48509;52.122;5.250;2022-08-19T08:11:08;66.5;;;43.2;;
62457;SDS011;48509;52.122;5.250;2022-08-19T08:12:45;61.6;;;40.81;;
62457;SDS011;48509;52.122;5.250;2022-08-19T08:16:03;58.7;;;39.6;;
62457;SDS011;48509;52.122;5.250;2022-08-19T08:17:40;58.1;;;38.4;;
62457;SDS011;48509;52.122;5.250;2022-08-19T08:19:17;60.9;;;39.21;;
62457;SDS011;48509;52.122;5.250;2022-08-19T08:20:56;56.0;;;38.71;;
62457;SDS011;48509;52.122;5.250;2022-08-19T08:25:15;63.7;;;38.31;;
62457;SDS011;48509;52.122;5.250;2022-08-19T08:28:35;57.7;;;38.0;;
62457;SDS011;48509;52.122;5.250;2022-08-19T08:30:12;66.0;;;42.0;;
62457;SDS011;48509;52.122;5.250;2022-08-19T08:31:53;56.8;;;38.81;;
62457;SDS011;48509;52.122;5.250;2022-08-19T08:33:30;66.6;;;41.8;;
62457;SDS011;48509;52.122;5.250;2022-08-19T08:36:48;60.8;;;39.0;;
62457;SDS011;48509;52.122;5.250;2022-08-19T08:38:25;66.1;;;42.8;;
62457;SDS011;48509;52.122;5.250;2022-08-19T08:40:02;59.4;;;40.71;;
62457;SDS011;48509;52.122;5.250;2022-08-19T08:41:43;57.8;;;40.6;;
62457;SDS011;48509;52.122;5.250;2022-08-19T08:45:15;66.8;;;45.2;;
62457;SDS011;48509;52.122;5.250;2022-08-19T08:46:55;69.2;;;43.8;;
62457;SDS011;48509;52.122;5.250;2022-08-19T08:48:38;68.91;;;42.9;;
62457;SDS011;48509;52.122;5.250;2022-08-19T08:50:21;65.1;;;43.2;;
62457;SDS011;48509;52.122;5.250;2022-08-19T08:52:05;61.1;;;40.81;;
62457;SDS011;48509;52.122;5.250;2022-08-19T08:55:27;64.0;;;42.7;;
62457;SDS011;48509;52.122;5.250;2022-08-19T08:57:07;58.7;;;39.21;;
62457;SDS011;48509;52.122;5.250;2022-08-19T08:58:57;63.5;;;38.71;;
62457;SDS011;48509;52.122;5.250;2022-08-19T09:00:38;51.9;;;37.4;;
62457;SDS011;48509;52.122;5.250;2022-08-19T09:03:56;58.1;;;40.9;;
62457;SDS011;48509;52.122;5.250;2022-08-19T09:05:35;54.6;;;37.31;;
62457;SDS011;48509;52.122;5.250;2022-08-19T09:07:30;56.2;;;40.6;;
62457;SDS011;48509;52.122;5.250;2022-08-19T09:09:32;56.4;;;36.4;;
62457;SDS011;48509;52.122;5.250;2022-08-19T09:11:14;44.6;;;31.2;;
62457;SDS011;48509;52.122;5.250;2022-08-19T09:13:08;52.5;;;35.4;;
62457;SDS011;48509;52.122;5.250;2022-08-19T09:16:41;46.3;;;33.8;;
62457;SDS011;48509;52.122;5.250;2022-08-19T09:18:18;48.3;;;33.21;;
62457;SDS011;48509;52.122;5.250;2022-08-19T09:19:56;45.5;;;31.6;;
62457;SDS011;48509;52.122;5.250;2022-08-19T09:21:35;47.1;;;30.6;;
62457;SDS011;48509;52.122;5.250;2022-08-19T09:24:48;40.81;;;27.0;;
62457;SDS011;48509;52.122;5.250;2022-08-19T09:26:25;36.81;;;25.4;;
62457;SDS011;48509;52.122;5.250;2022-08-19T09:28:03;38.9;;;27.0;;
62457;SDS011;48509;52.122;5.250;2022-08-19T09:31:15;41.5;;;28.2;;
62457;SDS011;48509;52.122;5.250;2022-08-19T09:33:00;41.3;;;28.0;;
62457;SDS011;48509;52.122;5.250;2022-08-19T09:34:37;37.1;;;27.7;;
62457;SDS011;48509;52.122;5.250;2022-08-19T09:36:14;40.5;;;25.8;;
62457;SDS011;48509;52.122;5.250;2022-08-19T09:39:30;33.4;;;23.8;;
62457;SDS011;48509;52.122;5.250;2022-08-19T09:41:08;34.31;;;24.4;;
62457;SDS011;48509;52.122;5.250;2022-08-19T09:42:48;44.2;;;28.9;;
62457;SDS011;48509;52.122;5.250;2022-08-19T09:44:24;36.71;;;24.1;;
62457;SDS011;48509;52.122;5.250;2022-08-19T09:47:38;34.4;;;24.1;;
62457;SDS011;48509;52.122;5.250;2022-08-19T09:49:14;38.1;;;28.3;;
62457;SDS011;48509;52.122;5.250;2022-08-19T09:50:52;46.8;;;31.5;;
62457;SDS011;48509;52.122;5.250;2022-08-19T09:54:04;44.2;;;32.3;;
62457;SDS011;48509;52.122;5.250;2022-08-19T09:55:41;41.4;;;28.7;;
62457;SDS011;48509;52.122;5.250;2022-08-19T09:57:18;40.1;;;27.1;;
62457;SDS011;48509;52.122;5.250;2022-08-19T10:00:30;37.81;;;25.6;;
62457;SDS011;48509;52.122;5.250;2022-08-19T10:02:09;32.71;;;23.5;;
62457;SDS011;48509;52.122;5.250;2022-08-19T10:03:47;40.9;;;27.7;;
62457;SDS011;48509;52.122;5.250;2022-08-19T10:05:57;40.1;;;25.9;;
62457;SDS011;48509;52.122;5.250;2022-08-19T10:07:35;38.21;;;26.8;;
62457;SDS011;48509;52.122;5.250;2022-08-19T10:10:50;40.4;;;25.2;;
62457;SDS011;48509;52.122;5.250;2022-08-19T10:12:27;33.71;;;24.3;;
62457;SDS011;48509;52.122;5.250;2022-08-19T10:14:06;35.31;;;24.9;;
62457;SDS011;48509;52.122;5.250;2022-08-19T10:15:43;41.2;;;26.4;;
62457;SDS011;48509;52.122;5.250;2022-08-19T10:18:57;41.6;;;30.8;;
62457;SDS011;48509;52.122;5.250;2022-08-19T10:20:35;34.4;;;23.4;;
62457;SDS011;48509;52.122;5.250;2022-08-19T10:22:14;35.1;;;25.3;;
62457;SDS011;48509;52.122;5.250;2022-08-19T10:25:31;35.6;;;26.7;;
62457;SDS011;48509;52.122;5.250;2022-08-19T10:27:10;43.0;;;29.5;;
62457;SDS011;48509;52.122;5.250;2022-08-19T10:28:46;44.3;;;30.8;;
62457;SDS011;48509;52.122;5.250;2022-08-19T10:30:23;35.71;;;26.0;;
62457;SDS011;48509;52.122;5.250;2022-08-19T10:33:37;45.9;;;32.5;;
62457;SDS011;48509;52.122;5.250;2022-08-19T10:35:14;42.6;;;29.1;;
62457;SDS011;48509;52.122;5.250;2022-08-19T10:36:52;47.3;;;34.31;;
62457;SDS011;48509;52.122;5.250;2022-08-19T10:40:06;35.31;;;28.4;;
62457;SDS011;48509;52.122;5.250;2022-08-19T10:41:44;40.0;;;29.4;;
62457;SDS011;48509;52.122;5.250;2022-08-19T10:43:20;37.6;;;30.2;;
62457;SDS011;48509;52.122;5.250;2022-08-19T10:46:35;46.4;;;33.21;;
62457;SDS011;48509;52.122;5.250;2022-08-19T10:48:16;41.2;;;30.6;;
62457;SDS011;48509;52.122;5.250;2022-08-19T10:52:46;48.1;;;35.21;;
62457;SDS011;48509;52.122;5.250;2022-08-19T10:56:50;46.1;;;32.9;;
62457;SDS011;48509;52.122;5.250;2022-08-19T10:58:26;46.7;;;32.3;;
62457;SDS011;48509;52.122;5.250;2022-08-19T11:00:03;48.4;;;33.9;;
62457;SDS011;48509;52.122;5.250;2022-08-19T11:03:19;44.5;;;31.8;;
62457;SDS011;48509;52.122;5.250;2022-08-19T11:04:56;41.7;;;30.4;;
62457;SDS011;48509;52.122;5.250;2022-08-19T11:06:32;54.5;;;36.81;;
62457;SDS011;48509;52.122;5.250;2022-08-19T11:08:11;49.2;;;33.8;;
62457;SDS011;48509;52.122;5.250;2022-08-19T11:11:24;43.4;;;29.7;;
62457;SDS011;48509;52.122;5.250;2022-08-19T11:13:00;45.5;;;29.9;;
62457;SDS011;48509;52.122;5.250;2022-08-19T11:14:36;41.3;;;28.1;;
62457;SDS011;48509;52.122;5.250;2022-08-19T11:17:54;42.4;;;28.3;;
62457;SDS011;48509;52.122;5.250;2022-08-19T11:19:31;42.8;;;29.0;;
62457;SDS011;48509;52.122;5.250;2022-08-19T11:21:10;45.5;;;29.0;;
62457;SDS011;48509;52.122;5.250;2022-08-19T11:22:49;43.5;;;29.5;;
62457;SDS011;48509;52.122;5.250;2022-08-19T11:26:04;39.21;;;28.4;;
62457;SDS011;48509;52.122;5.250;2022-08-19T11:27:42;42.6;;;29.6;;
62457;SDS011;48509;52.122;5.250;2022-08-19T11:29:20;47.2;;;34.9;;
62457;SDS011;48509;52.122;5.250;2022-08-19T11:32:36;50.0;;;29.3;;
62457;SDS011;48509;52.122;5.250;2022-08-19T11:34:14;51.5;;;37.5;;
62457;SDS011;48509;52.122;5.250;2022-08-19T11:35:56;44.1;;;30.9;;
62457;SDS011;48509;52.122;5.250;2022-08-19T11:37:37;42.4;;;27.0;;
62457;SDS011;48509;52.122;5.250;2022-08-19T11:40:54;42.2;;;25.8;;
62457;SDS011;48509;52.122;5.250;2022-08-19T11:43:04;36.4;;;24.8;;
62457;SDS011;48509;52.122;5.250;2022-08-19T11:44:40;50.5;;;30.0;;
62457;SDS011;48509;52.122;5.250;2022-08-19T11:46:17;46.8;;;27.3;;
62457;SDS011;48509;52.122;5.250;2022-08-19T11:47:53;41.2;;;28.0;;
62457;SDS011;48509;52.122;5.250;2022-08-19T11:51:09;49.8;;;32.3;;
62457;SDS011;48509;52.122;5.250;2022-08-19T11:52:53;48.2;;;32.21;;
62457;SDS011;48509;52.122;5.250;2022-08-19T11:54:30;37.6;;;25.2;;
62457;SDS011;48509;52.122;5.250;2022-08-19T11:56:07;44.7;;;29.8;;
62457;SDS011;48509;52.122;5.250;2022-08-19T11:59:22;41.9;;;29.6;;
62457;SDS011;48509;52.122;5.250;2022-08-19T12:00:58;43.1;;;29.3;;
62457;SDS011;48509;52.122;5.250;2022-08-19T12:02:35;39.5;;;28.6;;
62457;SDS011;48509;52.122;5.250;2022-08-19T12:05:48;43.8;;;29.5;;
62457;SDS011;48509;52.122;5.250;2022-08-19T12:07:25;39.71;;;27.0;;
62457;SDS011;48509;52.122;5.250;2022-08-19T12:09:03;40.0;;;28.1;;
62457;SDS011;48509;52.122;5.250;2022-08-19T12:12:20;37.71;;;26.4;;
62457;SDS011;48509;52.122;5.250;2022-08-19T12:13:56;45.5;;;30.9;;
62457;SDS011;48509;52.122;5.250;2022-08-19T12:15:35;40.6;;;28.7;;
62457;SDS011;48509;52.122;5.250;2022-08-19T12:17:11;34.5;;;24.0;;
62457;SDS011;48509;52.122;5.250;2022-08-19T12:20:27;38.81;;;28.4;;
62457;SDS011;48509;52.122;5.250;2022-08-19T12:22:05;34.4;;;25.9;;
62457;SDS011;48509;52.122;5.250;2022-08-19T12:23:41;39.21;;;26.0;;
62457;SDS011;48509;52.122;5.250;2022-08-19T12:26:57;39.21;;;26.0;;
62457;SDS011;48509;52.122;5.250;2022-08-19T12:28:33;39.1;;;28.8;;
62457;SDS011;48509;52.122;5.250;2022-08-19T12:30:10;35.6;;;24.8;;
62457;SDS011;48509;52.122;5.250;2022-08-19T12:31:48;30.9;;;21.7;;
62457;SDS011;48509;52.122;5.250;2022-08-19T12:35:05;32.8;;;22.6;;
62457;SDS011;48509;52.122;5.250;2022-08-19T12:36:42;29.1;;;21.1;;
62457;SDS011;48509;52.122;5.250;2022-08-19T12:38:18;31.1;;;20.41;;
62457;SDS011;48509;52.122;5.250;2022-08-19T12:41:32;32.6;;;22.6;;
62457;SDS011;48509;52.122;5.250;2022-08-19T12:43:09;22.1;;;15.4;;
62457;SDS011;48509;52.122;5.250;2022-08-19T12:44:45;29.7;;;21.2;;
62457;SDS011;48509;52.122;5.250;2022-08-19T12:46:21;27.0;;;17.91;;
62457;SDS011;48509;52.122;5.250;2022-08-19T12:49:36;28.2;;;18.41;;
62457;SDS011;48509;52.122;5.250;2022-08-19T12:51:15;24.2;;;17.3;;
62457;SDS011;48509;52.122;5.250;2022-08-19T12:52:53;25.8;;;16.11;;
62457;SDS011;48509;52.122;5.250;2022-08-19T12:56:07;32.21;;;19.41;;
62457;SDS011;48509;52.122;5.250;2022-08-19T12:57:48;22.3;;;15.9;;
62457;SDS011;48509;52.122;5.250;2022-08-19T12:59:25;22.0;;;15.8;;
62457;SDS011;48509;52.122;5.250;2022-08-19T13:01:05;23.0;;;14.9;;